Time;durP1;ratioP1;P1;durP2;ratioP2;P2;SDS_P1;SDS_P2;PMS_P1;PMS_P2;Temp;Humidity;BMP_temperature;BMP_pressure;BME280_temperature;BME280_humidity;BME280_pressure;Samples;Min_cycle;Max_cycle;Signal;HPM_P1;HPM_P2
2021/03/29 00:00:10;;;;;;;5.40;2.77;;;12.70;93.30;;;;;;5092084;28;20793;-49
2021/03/29 00:02:37;;;;;;;5.53;2.57;;;12.60;93.50;;;;;;5091633;28;20429;-47
2021/03/29 00:05:04;;;;;;;6.43;2.90;;;12.50;93.10;;;;;;5091941;28;20435;-47
2021/03/29 00:07:33;;;;;;;5.07;2.60;;;12.50;93.30;;;;;;5091889;28;20459;-47
2021/03/29 00:10:03;;;;;;;6.33;2.33;;;12.60;93.20;;;;;;5091905;28;20469;-47
2021/03/29 00:12:30;;;;;;;7.90;3.03;;;12.50;93.40;;;;;;5091487;28;20443;-47
2021/03/29 00:14:58;;;;;;;8.30;2.70;;;12.80;93.50;;;;;;5090464;28;20857;-46
2021/03/29 00:17:24;;;;;;;7.87;3.10;;;12.60;93.30;;;;;;5091820;28;20443;-46
2021/03/29 00:19:51;;;;;;;5.13;2.33;;;12.60;93.10;;;;;;5092688;28;20436;-47
2021/03/29 00:22:18;;;;;;;6.93;2.50;;;12.50;93.20;;;;;;5092999;28;20461;-46
2021/03/29 00:24:44;;;;;;;5.23;2.40;;;12.70;93.30;;;;;;5093008;28;20567;-47
2021/03/29 00:27:11;;;;;;;7.80;2.73;;;12.70;93.30;;;;;;5093386;28;20489;-47
2021/03/29 00:29:37;;;;;;;4.93;2.53;;;12.50;93.00;;;;;;5091852;28;20457;-47
2021/03/29 00:32:06;;;;;;;5.43;2.63;;;12.50;93.00;;;;;;5091642;28;20446;-46
2021/03/29 00:34:34;;;;;;;8.30;2.97;;;12.60;93.30;;;;;;5091464;28;20429;-47
2021/03/29 00:37:01;;;;;;;3.40;2.00;;;12.50;93.20;;;;;;5091393;28;20546;-47
2021/03/29 00:39:29;;;;;;;4.43;2.23;;;12.40;93.10;;;;;;5090025;28;20436;-48
2021/03/29 00:41:56;;;;;;;4.40;2.40;;;12.40;93.00;;;;;;5091554;28;20517;-46
2021/03/29 00:44:22;;;;;;;4.63;1.90;;;12.60;93.40;;;;;;5090055;28;20444;-47
2021/03/29 00:46:49;;;;;;;6.93;2.27;;;12.70;93.20;;;;;;5091338;28;20487;-46
2021/03/29 00:49:17;;;;;;;6.47;2.73;;;12.60;93.20;;;;;;5091584;28;20474;-48
2021/03/29 00:51:45;;;;;;;6.70;2.60;;;12.50;93.10;;;;;;5092162;28;20437;-47
2021/03/29 00:54:11;;;;;;;6.93;3.00;;;12.40;93.30;;;;;;5091717;28;20457;-47
2021/03/29 00:56:38;;;;;;;5.23;2.20;;;12.50;93.40;;;;;;5092724;28;20490;-47
2021/03/29 00:59:06;;;;;;;4.83;2.33;;;12.80;93.40;;;;;;5091953;28;20458;-47
2021/03/29 01:01:39;;;;;;;8.50;2.93;;;12.70;93.20;;;;;;5090244;28;20972;-47
2021/03/29 01:04:07;;;;;;;4.70;2.83;;;12.70;93.50;;;;;;5091129;28;20434;-47
2021/03/29 01:06:38;;;;;;;9.80;3.07;;;12.20;93.20;;;;;;5091245;28;20554;-48
2021/03/29 01:09:07;;;;;;;7.23;2.80;;;12.80;93.30;;;;;;5091188;28;20429;-46
2021/03/29 01:11:39;;;;;;;7.17;2.73;;;12.70;93.30;;;;;;5091428;28;20470;-48
2021/03/29 01:14:08;;;;;;;7.47;2.80;;;12.60;93.10;;;;;;5089864;28;20955;-47
2021/03/29 01:16:40;;;;;;;7.17;2.80;;;12.70;93.60;;;;;;5091590;28;20440;-47
2021/03/29 01:19:13;;;;;;;5.13;2.87;;;12.60;93.20;;;;;;5092222;28;20419;-46
2021/03/29 01:21:52;;;;;;;5.47;2.70;;;12.60;93.40;;;;;;5091336;28;20429;-47
2021/03/29 01:24:29;;;;;;;5.70;2.97;;;12.60;93.30;;;;;;5090877;28;20476;-47
2021/03/29 01:26:57;;;;;;;5.40;2.80;;;12.40;93.30;;;;;;5090904;28;20529;-46
2021/03/29 01:29:30;;;;;;;5.33;2.80;;;12.50;93.30;;;;;;5091078;28;20563;-47
2021/03/29 01:31:58;;;;;;;5.67;2.30;;;12.50;93.10;;;;;;5090091;28;20788;-46
2021/03/29 01:34:26;;;;;;;9.90;2.70;;;12.40;93.30;;;;;;5090670;28;20509;-47
2021/03/29 01:36:53;;;;;;;7.03;2.23;;;12.40;93.10;;;;;;5092994;28;20470;-47
2021/03/29 01:39:20;;;;;;;5.00;2.33;;;12.40;93.10;;;;;;5094702;28;20908;-47
2021/03/29 01:41:48;;;;;;;5.30;2.40;;;12.40;93.40;;;;;;5094615;28;20433;-48
2021/03/29 01:44:16;;;;;;;4.60;2.20;;;12.50;93.20;;;;;;5094269;28;20440;-47
2021/03/29 01:46:43;;;;;;;7.93;2.63;;;12.40;93.40;;;;;;5094378;28;21000;-47
2021/03/29 01:49:09;;;;;;;8.87;3.23;;;12.60;93.50;;;;;;5094492;28;20894;-48
2021/03/29 01:51:35;;;;;;;8.63;2.90;;;12.50;93.40;;;;;;5094672;28;20433;-47
2021/03/29 01:54:04;;;;;;;6.43;2.30;;;12.40;93.20;;;;;;5094246;28;20792;-47
2021/03/29 01:56:30;;;;;;;6.90;2.53;;;12.70;93.70;;;;;;5093203;28;20464;-47
2021/03/29 01:58:57;;;;;;;6.50;3.03;;;12.30;93.50;;;;;;5095469;28;20490;-46
2021/03/29 02:01:25;;;;;;;4.73;2.63;;;12.60;93.50;;;;;;5095244;28;20610;-45
2021/03/29 02:03:52;;;;;;;6.63;3.27;;;12.60;93.70;;;;;;5094805;28;20460;-46
2021/03/29 02:06:18;;;;;;;6.30;2.50;;;12.50;93.50;;;;;;5094209;28;20533;-47
2021/03/29 02:08:46;;;;;;;6.60;2.90;;;12.10;93.20;;;;;;5094346;28;20425;-47
2021/03/29 02:11:14;;;;;;;5.70;2.50;;;12.50;93.60;;;;;;5094091;28;20430;-46
2021/03/29 02:13:44;;;;;;;8.13;2.80;;;12.40;93.80;;;;;;5093638;28;20432;-47
2021/03/29 02:16:12;;;;;;;5.83;2.90;;;12.30;93.60;;;;;;5093912;28;20457;-46
2021/03/29 02:18:42;;;;;;;7.93;2.73;;;12.20;93.40;;;;;;5093138;28;20423;-47
2021/03/29 02:21:11;;;;;;;6.50;2.80;;;12.60;93.70;;;;;;5092856;28;20484;-48
2021/03/29 02:23:40;;;;;;;7.07;2.70;;;12.60;93.70;;;;;;5093736;28;20455;-47
2021/03/29 02:26:08;;;;;;;5.60;2.33;;;12.70;93.80;;;;;;5093537;28;20897;-47
2021/03/29 02:28:35;;;;;;;6.77;2.70;;;12.40;93.80;;;;;;5093848;28;20487;-47
2021/03/29 02:31:04;;;;;;;8.73;3.20;;;12.60;94.00;;;;;;5093783;28;20433;-47
2021/03/29 02:33:33;;;;;;;11.53;3.50;;;12.10;93.80;;;;;;5093388;28;20488;-47
2021/03/29 02:36:02;;;;;;;9.73;2.90;;;12.40;94.40;;;;;;5093624;28;20463;-46
2021/03/29 02:38:29;;;;;;;7.03;1.90;;;12.20;94.00;;;;;;5091981;28;20452;-48
2021/03/29 02:40:55;;;;;;;7.70;2.80;;;12.10;94.10;;;;;;5093479;28;20569;-47
2021/03/29 02:43:23;;;;;;;6.00;2.50;;;12.30;94.10;;;;;;5093199;28;20425;-46
2021/03/29 02:45:52;;;;;;;7.23;2.83;;;12.10;94.00;;;;;;5093632;28;21046;-48
2021/03/29 02:48:23;;;;;;;6.00;2.67;;;12.20;94.20;;;;;;5093339;28;20431;-46
2021/03/29 02:50:51;;;;;;;8.80;3.67;;;12.10;94.30;;;;;;5093154;28;20939;-47
2021/03/29 02:53:20;;;;;;;8.57;2.73;;;12.20;94.30;;;;;;5092983;28;20930;-46
2021/03/29 02:55:48;;;;;;;8.43;3.03;;;12.00;94.20;;;;;;5093527;28;20450;-47
2021/03/29 02:58:17;;;;;;;7.97;3.63;;;12.20;94.00;;;;;;5093271;28;20478;-48
2021/03/29 03:00:44;;;;;;;8.07;3.40;;;12.20;94.30;;;;;;5093228;28;20444;-47
2021/03/29 03:03:10;;;;;;;8.53;3.70;;;11.90;94.20;;;;;;5092850;28;20460;-47
2021/03/29 03:05:38;;;;;;;12.07;3.10;;;12.10;94.30;;;;;;5092777;28;20472;-48
2021/03/29 03:08:05;;;;;;;8.33;2.80;;;12.20;94.50;;;;;;5091907;28;20946;-46
2021/03/29 03:10:34;;;;;;;11.67;3.50;;;12.10;94.50;;;;;;5092963;28;20427;-47
2021/03/29 03:13:03;;;;;;;6.30;2.97;;;12.20;94.50;;;;;;5092882;28;21007;-46
2021/03/29 03:15:30;;;;;;;6.53;3.03;;;11.90;94.50;;;;;;5091588;28;20445;-47
2021/03/29 03:17:59;;;;;;;6.07;3.30;;;12.10;94.50;;;;;;5092925;28;20425;-47
2021/03/29 03:20:27;;;;;;;10.10;3.10;;;12.30;94.60;;;;;;5092840;28;20441;-47
2021/03/29 03:22:55;;;;;;;9.43;3.07;;;12.50;94.70;;;;;;5092636;28;20466;-47
2021/03/29 03:25:23;;;;;;;7.87;3.60;;;11.90;94.40;;;;;;5092801;28;20523;-48
2021/03/29 03:27:52;;;;;;;10.50;3.80;;;12.30;94.80;;;;;;5091192;28;20527;-47
2021/03/29 03:30:24;;;;;;;5.23;2.63;;;11.90;94.60;;;;;;5092569;28;20427;-47
2021/03/29 03:32:51;;;;;;;5.70;2.70;;;12.00;94.70;;;;;;5092224;28;20436;-47
2021/03/29 03:35:19;;;;;;;10.13;3.23;;;12.20;94.70;;;;;;5093031;28;20429;-47
2021/03/29 03:37:50;;;;;;;7.73;3.23;;;12.00;94.60;;;;;;5092632;28;20521;-48
2021/03/29 03:40:19;;;;;;;9.57;3.33;;;12.10;94.40;;;;;;5092894;28;20470;-47
2021/03/29 03:42:47;;;;;;;8.67;3.90;;;12.40;94.90;;;;;;5092591;28;20422;-48
2021/03/29 03:45:15;;;;;;;7.47;3.60;;;12.10;94.80;;;;;;5092926;28;20446;-48
2021/03/29 03:47:43;;;;;;;7.43;2.80;;;12.10;94.60;;;;;;5092886;28;20545;-47
2021/03/29 03:50:13;;;;;;;9.23;4.20;;;12.10;94.60;;;;;;5093344;28;20448;-46
2021/03/29 03:52:41;;;;;;;13.47;4.20;;;12.40;95.00;;;;;;5092020;28;20429;-48
2021/03/29 03:55:09;;;;;;;8.87;3.33;;;12.10;94.90;;;;;;5091185;28;20991;-47
2021/03/29 03:57:37;;;;;;;8.80;3.00;;;12.00;94.90;;;;;;5093696;28;20496;-47
2021/03/29 04:00:07;;;;;;;11.70;3.73;;;12.20;94.70;;;;;;5093309;28;20422;-47
2021/03/29 04:02:39;;;;;;;4.67;3.07;;;12.00;94.90;;;;;;5093655;28;20522;-47
2021/03/29 04:05:09;;;;;;;13.40;3.57;;;11.90;94.80;;;;;;5094571;28;20492;-46
2021/03/29 04:07:36;;;;;;;8.87;3.70;;;12.00;95.00;;;;;;5093898;28;20481;-47
2021/03/29 04:10:10;;;;;;;13.50;4.43;;;12.00;94.80;;;;;;5093777;28;20428;-47
2021/03/29 04:12:36;;;;;;;9.57;5.20;;;12.00;94.80;;;;;;5092039;28;20436;-47
2021/03/29 04:15:03;;;;;;;13.40;4.63;;;12.20;94.90;;;;;;5091861;28;20996;-48
2021/03/29 04:17:29;;;;;;;8.90;3.60;;;12.00;95.10;;;;;;5091945;28;20883;-47
2021/03/29 04:19:56;;;;;;;7.43;3.20;;;12.20;95.00;;;;;;5092092;28;20501;-47
2021/03/29 04:22:22;;;;;;;12.37;4.20;;;12.30;95.40;;;;;;5091459;28;20433;-47
2021/03/29 04:24:49;;;;;;;8.07;3.97;;;12.00;95.00;;;;;;5091726;28;20493;-46
2021/03/29 04:27:15;;;;;;;7.87;3.80;;;12.00;95.30;;;;;;5092932;28;20486;-46
2021/03/29 04:29:42;;;;;;;10.43;3.67;;;11.90;95.10;;;;;;5093543;28;21046;-45
2021/03/29 04:32:09;;;;;;;10.70;3.60;;;11.80;95.10;;;;;;5092862;28;20494;-46
2021/03/29 04:34:35;;;;;;;12.43;4.07;;;11.90;95.40;;;;;;5092328;28;20860;-46
2021/03/29 04:37:03;;;;;;;8.00;4.57;;;11.80;95.10;;;;;;5104619;22;20544;-47
2021/03/29 04:39:29;;;;;;;14.37;4.40;;;12.00;95.50;;;;;;5069717;28;21036;-47
2021/03/29 04:41:55;;;;;;;6.87;4.30;;;11.80;95.50;;;;;;5070749;28;20586;-47
2021/03/29 04:44:21;;;;;;;14.13;4.60;;;11.90;95.50;;;;;;5070640;28;20522;-47
2021/03/29 04:46:48;;;;;;;9.13;5.03;;;11.90;95.30;;;;;;5069139;28;20946;-48
2021/03/29 04:49:14;;;;;;;11.77;4.43;;;12.10;95.30;;;;;;5070788;28;20434;-48
2021/03/29 04:51:40;;;;;;;14.83;3.80;;;11.70;95.30;;;;;;5070968;28;20462;-48
2021/03/29 04:54:07;;;;;;;19.13;4.87;;;12.00;95.40;;;;;;5070552;28;20422;-47
2021/03/29 04:56:34;;;;;;;9.77;4.30;;;11.40;95.00;;;;;;5070805;28;20553;-48
2021/03/29 04:59:00;;;;;;;15.10;4.10;;;12.00;95.30;;;;;;5071538;28;20437;-46
2021/03/29 05:01:26;;;;;;;10.20;3.60;;;12.00;95.20;;;;;;5070224;28;20880;-47
2021/03/29 05:03:53;;;;;;;13.00;4.13;;;12.10;95.20;;;;;;5069633;28;20443;-48
2021/03/29 05:06:19;;;;;;;7.57;3.57;;;11.70;94.80;;;;;;5070759;28;20474;-48
2021/03/29 05:08:45;;;;;;;17.50;4.40;;;12.00;94.80;;;;;;5070859;28;20893;-48
2021/03/29 05:11:12;;;;;;;11.53;4.07;;;12.00;95.00;;;;;;5071806;28;20435;-48
2021/03/29 05:13:38;;;;;;;8.53;3.10;;;11.90;94.60;;;;;;5074173;28;20441;-48
2021/03/29 05:16:05;;;;;;;13.80;4.50;;;12.30;95.00;;;;;;5074415;28;20724;-49
2021/03/29 05:18:32;;;;;;;4.63;3.33;;;12.10;94.80;;;;;;5074285;28;20884;-46
2021/03/29 05:20:58;;;;;;;13.63;3.83;;;12.20;94.90;;;;;;5073802;28;20452;-48
2021/03/29 05:23:24;;;;;;;10.63;4.03;;;12.10;94.60;;;;;;5073818;28;20948;-48
2021/03/29 05:25:50;;;;;;;13.73;3.77;;;11.80;94.60;;;;;;5073793;28;20433;-48
2021/03/29 05:28:18;;;;;;;29.93;5.17;;;12.00;94.60;;;;;;5074403;28;20434;-48
2021/03/29 05:30:44;;;;;;;11.97;4.70;;;12.20;94.70;;;;;;5074303;28;20547;-48
2021/03/29 05:33:10;;;;;;;12.47;3.57;;;12.60;94.90;;;;;;5074240;28;20532;-47
2021/03/29 05:35:36;;;;;;;12.83;4.30;;;12.30;94.70;;;;;;5074187;28;20438;-47
2021/03/29 05:38:03;;;;;;;8.77;3.83;;;12.10;94.30;;;;;;5074121;28;20944;-48
2021/03/29 05:40:29;;;;;;;13.03;4.17;;;12.20;94.50;;;;;;5074068;28;20944;-48
2021/03/29 05:42:56;;;;;;;13.47;4.00;;;12.30;94.60;;;;;;5073651;28;20423;-48
2021/03/29 05:45:29;;;;;;;10.43;4.07;;;12.00;94.30;;;;;;5074171;28;20790;-48
2021/03/29 05:47:56;;;;;;;9.57;3.90;;;12.00;94.10;;;;;;5073758;28;20482;-48
2021/03/29 05:50:22;;;;;;;17.77;5.37;;;12.10;94.40;;;;;;5073709;28;20791;-49
2021/03/29 05:52:49;;;;;;;10.63;4.73;;;12.30;94.50;;;;;;5073275;28;20440;-49
2021/03/29 05:55:18;;;;;;;10.90;4.63;;;12.10;94.60;;;;;;5073540;28;20952;-48
2021/03/29 05:58:05;;;;;;;13.87;4.40;;;12.20;94.50;;;;;;5073714;28;20963;-49
2021/03/29 06:00:36;;;;;;;8.77;4.43;;;12.40;94.60;;;;;;5073527;28;20442;-47
2021/03/29 06:03:20;;;;;;;12.23;5.00;;;12.60;95.20;;;;;;5073395;28;20449;-47
2021/03/29 06:05:47;;;;;;;10.90;5.15;;;12.60;95.00;;;;;;5073844;28;20435;-47
2021/03/29 06:08:13;;;;;;;10.13;4.77;;;12.50;94.90;;;;;;5072192;28;20490;-47
2021/03/29 06:10:40;;;;;;;10.37;4.20;;;12.40;94.60;;;;;;5072170;28;20937;-48
2021/03/29 06:13:17;;;;;;;17.50;4.87;;;12.30;94.80;;;;;;5072803;28;20445;-48
2021/03/29 06:15:46;;;;;;;11.60;4.80;;;12.70;95.00;;;;;;5071806;28;20986;-48
2021/03/29 06:18:14;;;;;;;12.73;6.40;;;12.60;95.10;;;;;;5073385;28;20437;-48
2021/03/29 06:21:05;;;;;;;13.00;5.60;;;12.80;95.50;;;;;;5073705;28;20442;-47
2021/03/29 06:23:33;;;;;;;9.80;4.37;;;12.50;95.40;;;;;;5052756;28;20454;-48
2021/03/29 06:26:27;;;;;;;12.50;5.60;;;12.40;95.30;;;;;;5073323;28;20452;-48
2021/03/29 06:28:54;;;;;;;12.30;7.87;;;12.60;95.50;;;;;;5026527;28;20457;-48
2021/03/29 06:31:27;;;;;;;13.13;6.10;;;12.40;95.30;;;;;;5073018;28;20568;-48
2021/03/29 06:33:54;;;;;;;14.50;6.87;;;12.60;95.30;;;;;;5072915;28;20432;-48
2021/03/29 06:36:26;;;;;;;11.70;5.53;;;12.50;94.70;;;;;;5072720;28;20468;-49
2021/03/29 06:38:53;;;;;;;19.03;7.00;;;12.80;94.90;;;;;;5072870;28;20429;-49
2021/03/29 06:41:25;;;;;;;12.07;5.13;;;13.00;94.70;;;;;;5073213;28;20434;-48
2021/03/29 06:43:52;;;;;;;13.03;5.10;;;12.80;94.50;;;;;;5072791;28;20834;-48
2021/03/29 06:46:23;;;;;;;12.80;4.57;;;13.20;94.20;;;;;;5072613;28;20491;-48
2021/03/29 06:48:51;;;;;;;9.83;5.20;;;12.50;93.40;;;;;;5073037;28;20912;-47
2021/03/29 06:51:19;;;;;;;14.53;4.90;;;13.10;93.30;;;;;;5072933;28;20917;-49
2021/03/29 06:53:47;;;;;;;15.70;6.10;;;12.70;93.00;;;;;;5072201;28;20430;-48
2021/03/29 06:56:32;;;;;;;12.00;5.27;;;13.30;93.40;;;;;;5072401;28;20508;-49
2021/03/29 06:59:09;;;;;;;13.80;5.00;;;13.30;92.90;;;;;;5072219;28;20427;-48
2021/03/29 07:01:37;;;;;;;16.30;4.67;;;13.30;92.80;;;;;;5072450;28;20439;-48
2021/03/29 07:04:05;;;;;;;18.33;5.90;;;13.40;92.80;;;;;;5072513;28;20429;-48
2021/03/29 07:06:34;;;;;;;16.23;4.77;;;13.40;92.40;;;;;;5072742;28;20502;-48
2021/03/29 07:09:05;;;;;;;11.00;4.90;;;13.30;92.10;;;;;;5072510;28;20516;-48
2021/03/29 07:11:32;;;;;;;10.60;5.07;;;13.20;91.80;;;;;;5072340;28;20444;-47
2021/03/29 07:14:52;;;;;;;7.10;4.77;;;13.40;91.80;;;;;;5072281;28;20449;-47
2021/03/29 07:17:21;;;;;;;16.83;6.50;;;13.50;91.90;;;;;;5047055;28;20920;-47
2021/03/29 07:19:49;;;;;;;12.80;4.40;;;14.00;91.90;;;;;;5072534;28;20929;-47
2021/03/29 07:22:18;;;;;;;7.47;5.00;;;13.50;91.60;;;;;;5072167;28;20426;-48
2021/03/29 07:24:45;;;;;;;11.23;5.23;;;13.40;91.90;;;;;;5070957;28;20489;-48
2021/03/29 07:27:15;;;;;;;8.13;4.03;;;13.60;92.00;;;;;;5072341;28;20533;-48
2021/03/29 07:29:47;;;;;;;8.03;3.77;;;13.50;92.00;;;;;;5072436;28;20445;-49
2021/03/29 07:32:28;;;;;;;19.20;6.00;;;13.60;92.20;;;;;;5072553;28;20437;-47
2021/03/29 07:34:55;;;;;;;11.73;4.70;;;13.60;92.20;;;;;;5071813;28;20435;-53
2021/03/29 07:37:30;;;;;;;9.40;4.53;;;13.80;92.10;;;;;;5071819;28;20465;-48
2021/03/29 07:39:57;;;;;;;9.27;4.60;;;14.00;92.00;;;;;;5071117;28;20430;-48
2021/03/29 07:42:38;;;;;;;11.40;4.40;;;13.70;91.80;;;;;;5069945;28;20965;-48
2021/03/29 07:45:08;;;;;;;9.90;4.17;;;13.90;91.40;;;;;;5071575;28;20516;-48
2021/03/29 07:47:46;;;;;;;17.27;5.47;;;13.90;91.40;;;;;;5071788;28;20484;-49
2021/03/29 07:50:18;;;;;;;15.30;5.43;;;14.10;91.30;;;;;;5071977;28;20501;-49
2021/03/29 07:52:48;;;;;;;15.83;5.63;;;14.30;91.30;;;;;;5071202;28;20454;-49
2021/03/29 07:55:20;;;;;;;12.43;4.30;;;14.10;91.20;;;;;;5071720;28;21085;-48
2021/03/29 07:58:07;;;;;;;12.57;4.00;;;14.10;91.00;;;;;;5071514;28;20468;-48
2021/03/29 08:00:59;;;;;;;10.70;5.27;;;14.40;90.80;;;;;;5071317;28;20859;-48
2021/03/29 08:03:40;;;;;;;16.73;5.17;;;14.20;90.80;;;;;;5070856;28;20475;-48
2021/03/29 08:06:28;;;;;;;11.00;5.37;;;14.40;90.60;;;;;;5070673;28;20457;-48
2021/03/29 08:08:54;;;;;;;14.40;4.97;;;14.50;90.60;;;;;;5070296;28;20448;-48
2021/03/29 08:11:22;;;;;;;11.00;4.50;;;14.50;90.40;;;;;;5071131;28;20800;-48
2021/03/29 08:13:50;;;;;;;15.23;4.90;;;14.40;90.10;;;;;;5070758;28;20460;-48
2021/03/29 08:16:28;;;;;;;16.00;5.20;;;14.90;90.00;;;;;;5071373;28;20492;-48
2021/03/29 08:19:14;;;;;;;11.33;5.20;;;14.80;90.10;;;;;;5071313;28;20519;-48
2021/03/29 08:21:49;;;;;;;15.57;5.07;;;14.90;89.80;;;;;;5071758;28;20429;-48
2021/03/29 08:24:17;;;;;;;15.70;4.47;;;15.00;89.70;;;;;;5070567;28;20428;-48
2021/03/29 08:26:44;;;;;;;19.70;6.23;;;15.10;88.60;;;;;;5070929;28;20534;-48
2021/03/29 08:29:20;;;;;;;10.60;5.03;;;15.10;87.70;;;;;;5070793;28;20524;-49
2021/03/29 08:32:13;;;;;;;12.63;3.97;;;15.20;87.90;;;;;;5070987;28;20440;-48
2021/03/29 08:35:01;;;;;;;10.80;4.23;;;15.30;86.70;;;;;;5070485;28;20431;-48
2021/03/29 08:37:33;;;;;;;10.10;4.17;;;15.50;86.70;;;;;;5059910;28;20469;-48
2021/03/29 08:40:01;;;;;;;10.77;4.60;;;15.80;85.90;;;;;;5070656;28;20447;-49
2021/03/29 08:42:30;;;;;;;11.90;3.73;;;16.10;85.80;;;;;;5070102;28;20445;-49
2021/03/29 08:44:59;;;;;;;12.13;3.27;;;15.70;84.70;;;;;;5070714;28;20487;-49
2021/03/29 08:47:27;;;;;;;17.03;3.73;;;15.40;83.70;;;;;;5070067;28;20485;-48
2021/03/29 08:49:56;;;;;;;9.97;3.90;;;15.80;84.30;;;;;;5070775;28;20432;-49
2021/03/29 08:52:24;;;;;;;7.50;3.43;;;15.40;82.80;;;;;;5070696;28;20439;-48
2021/03/29 08:54:56;;;;;;;9.43;3.77;;;15.90;82.90;;;;;;5070924;28;20441;-48
2021/03/29 08:57:26;;;;;;;12.70;3.37;;;16.00;83.50;;;;;;5070671;28;21055;-48
2021/03/29 08:59:54;;;;;;;7.63;3.33;;;15.80;83.00;;;;;;5069175;28;20462;-47
2021/03/29 09:02:20;;;;;;;11.00;3.30;;;16.10;83.00;;;;;;5070143;28;20433;-49
2021/03/29 09:04:49;;;;;;;9.27;3.53;;;15.90;83.20;;;;;;5070869;28;20472;-48
2021/03/29 09:07:16;;;;;;;103.33;24.30;;;16.20;84.50;;;;;;5071180;28;20693;-49
2021/03/29 09:09:43;;;;;;;18.07;4.80;;;16.40;84.10;;;;;;5070615;28;20434;-48
2021/03/29 09:12:22;;;;;;;11.70;3.40;;;16.10;83.40;;;;;;5070483;28;20465;-48
2021/03/29 09:14:48;;;;;;;9.00;3.00;;;16.30;83.70;;;;;;5068830;28;20940;-48
2021/03/29 09:17:26;;;;;;;8.70;3.87;;;15.90;82.40;;;;;;5068975;28;20459;-48
2021/03/29 09:19:53;;;;;;;12.67;3.83;;;16.10;82.30;;;;;;5070176;28;20425;-50
2021/03/29 09:22:34;;;;;;;10.53;4.07;;;16.40;82.10;;;;;;5070013;28;20439;-49
2021/03/29 09:25:03;;;;;;;10.93;4.03;;;16.50;81.70;;;;;;5068469;28;20446;-49
2021/03/29 09:27:36;;;;;;;11.27;3.90;;;16.40;81.30;;;;;;5069776;28;20495;-49
2021/03/29 09:30:07;;;;;;;10.33;3.20;;;16.60;80.40;;;;;;5070054;28;20421;-49
2021/03/29 09:32:34;;;;;;;9.33;3.50;;;16.50;80.10;;;;;;5069951;28;20600;-49
2021/03/29 09:35:01;;;;;;;9.77;3.83;;;16.60;79.80;;;;;;5068649;28;20430;-49
2021/03/29 09:37:30;;;;;;;12.93;3.60;;;16.40;79.40;;;;;;5069453;28;20488;-49
2021/03/29 09:39:58;;;;;;;16.83;4.17;;;17.00;79.60;;;;;;5070251;28;20524;-49
2021/03/29 09:42:42;;;;;;;12.23;4.33;;;17.10;79.00;;;;;;5069531;28;20435;-49
2021/03/29 09:45:11;;;;;;;12.60;3.40;;;16.70;77.90;;;;;;5069677;28;20544;-49
2021/03/29 09:47:38;;;;;;;7.20;3.33;;;17.20;78.10;;;;;;5069484;28;20475;-49
2021/03/29 09:50:08;;;;;;;8.20;4.10;;;17.20;78.10;;;;;;5070024;28;20692;-49
2021/03/29 09:52:37;;;;;;;9.50;3.30;;;16.90;77.30;;;;;;5069212;28;20512;-48
2021/03/29 09:55:05;;;;;;;12.30;3.33;;;17.20;76.40;;;;;;5069626;28;20430;-48
2021/03/29 09:57:38;;;;;;;6.00;2.70;;;17.40;75.70;;;;;;5069392;28;20443;-48
2021/03/29 10:00:18;;;;;;;9.50;3.17;;;17.50;76.20;;;;;;5071694;28;20447;-48
2021/03/29 10:02:46;;;;;;;6.93;3.13;;;17.50;75.60;;;;;;5071765;28;20518;-48
2021/03/29 10:05:15;;;;;;;8.97;3.00;;;17.60;74.70;;;;;;5073140;28;20477;-48
2021/03/29 10:07:52;;;;;;;12.20;5.40;;;17.50;74.00;;;;;;5073638;28;20483;-49
2021/03/29 10:10:27;;;;;;;12.03;4.67;;;17.60;74.00;;;;;;5073306;28;20434;-49
2021/03/29 10:13:11;;;;;;;9.87;3.47;;;17.70;72.50;;;;;;5072720;28;20448;-48
2021/03/29 10:15:41;;;;;;;8.27;3.33;;;18.20;72.50;;;;;;5073095;28;20435;-49
2021/03/29 10:18:13;;;;;;;7.20;3.30;;;17.70;71.90;;;;;;5072729;28;20530;-48
2021/03/29 10:20:42;;;;;;;5.47;3.30;;;18.20;71.00;;;;;;5073016;28;20527;-48
2021/03/29 10:23:23;;;;;;;8.73;3.30;;;18.20;70.90;;;;;;5072528;28;20849;-48
2021/03/29 10:26:21;;;;;;;8.23;2.93;;;18.00;70.80;;;;;;5072768;28;20525;-48
2021/03/29 10:29:00;;;;;;;7.50;2.70;;;17.90;70.40;;;;;;4990980;28;20446;-50
2021/03/29 10:31:28;;;;;;;6.97;3.17;;;18.10;70.50;;;;;;5057127;28;20558;-49
2021/03/29 10:33:55;;;;;;;9.73;3.40;;;18.40;69.50;;;;;;5072155;28;20441;-49
2021/03/29 10:36:22;;;;;;;7.23;2.70;;;18.00;68.90;;;;;;5087197;22;20469;-47
2021/03/29 10:38:50;;;;;;;11.20;3.83;;;18.10;68.60;;;;;;5074818;28;20452;-45
2021/03/29 10:41:17;;;;;;;8.93;2.60;;;18.10;68.40;;;;;;5074815;28;20637;-45
2021/03/29 10:43:43;;;;;;;12.03;3.13;;;18.40;68.50;;;;;;5074149;28;20431;-45
2021/03/29 10:46:10;;;;;;;8.80;2.80;;;18.20;68.50;;;;;;5074944;28;20551;-45
2021/03/29 10:48:38;;;;;;;10.87;3.70;;;18.30;68.50;;;;;;5074170;28;20764;-44
2021/03/29 10:51:07;;;;;;;11.90;3.20;;;18.30;68.70;;;;;;5074661;28;20435;-44
2021/03/29 10:53:34;;;;;;;6.40;3.20;;;18.10;72.20;;;;;;5072997;28;20433;-45
2021/03/29 10:56:01;;;;;;;7.17;2.70;;;18.20;74.90;;;;;;5073666;28;20528;-46
2021/03/29 10:58:27;;;;;;;8.40;2.70;;;18.10;77.00;;;;;;5073781;28;20554;-45
2021/03/29 11:00:54;;;;;;;6.13;3.20;;;17.50;78.00;;;;;;5073662;28;20440;-45
2021/03/29 11:03:21;;;;;;;6.83;2.67;;;17.80;80.60;;;;;;5071470;28;20459;-46
2021/03/29 11:05:48;;;;;;;10.53;3.80;;;18.20;81.10;;;;;;5073038;28;20920;-45
2021/03/29 11:08:17;;;;;;;5.10;2.90;;;18.10;80.40;;;;;;5072841;28;20987;-46
2021/03/29 11:10:44;;;;;;;7.97;2.60;;;18.30;80.10;;;;;;5072964;28;20452;-45
2021/03/29 11:13:10;;;;;;;5.60;2.60;;;18.20;78.90;;;;;;5072752;28;20503;-47
2021/03/29 11:15:37;;;;;;;6.90;2.60;;;18.00;77.70;;;;;;5072894;28;20470;-46
2021/03/29 11:18:05;;;;;;;9.50;3.20;;;18.40;78.30;;;;;;5072417;28;20489;-46
2021/03/29 11:20:32;;;;;;;11.83;3.67;;;18.10;77.90;;;;;;5072711;28;20437;-46
2021/03/29 11:23:00;;;;;;;10.83;3.40;;;18.10;76.60;;;;;;5072227;28;20438;-46
2021/03/29 11:25:27;;;;;;;8.47;3.23;;;18.30;75.70;;;;;;5072404;28;20801;-46
2021/03/29 11:27:53;;;;;;;14.07;3.30;;;18.60;75.50;;;;;;5070787;28;20486;-45
2021/03/29 11:30:21;;;;;;;14.60;4.40;;;17.80;74.20;;;;;;5072721;28;20777;-45
2021/03/29 11:32:47;;;;;;;11.90;4.57;;;18.10;75.10;;;;;;5072333;28;20444;-45
2021/03/29 11:35:14;;;;;;;11.13;3.07;;;18.40;75.50;;;;;;5072968;28;20949;-45
2021/03/29 11:37:40;;;;;;;7.20;2.90;;;17.90;74.50;;;;;;5072585;28;20883;-45
2021/03/29 11:40:11;;;;;;;13.90;3.37;;;18.10;74.10;;;;;;5072477;28;20477;-46
2021/03/29 11:42:39;;;;;;;11.90;3.77;;;18.40;74.00;;;;;;5072263;28;20545;-45
2021/03/29 11:45:07;;;;;;;6.30;3.00;;;18.40;72.80;;;;;;5072816;28;20438;-46
2021/03/29 11:47:34;;;;;;;6.60;2.80;;;18.50;71.70;;;;;;5070718;28;20980;-46
2021/03/29 11:50:00;;;;;;;8.07;2.50;;;18.30;70.00;;;;;;5072714;28;20445;-45
2021/03/29 11:52:27;;;;;;;9.60;3.30;;;18.10;68.90;;;;;;5072365;28;20448;-46
2021/03/29 11:54:53;;;;;;;8.67;3.27;;;18.40;69.10;;;;;;5071127;28;20444;-46
2021/03/29 11:57:20;;;;;;;9.77;3.23;;;18.70;69.10;;;;;;5072443;28;20985;-45
2021/03/29 11:59:48;;;;;;;8.27;3.20;;;18.50;68.30;;;;;;5072067;28;20426;-45
2021/03/29 12:02:18;;;;;;;7.20;2.40;;;18.40;67.80;;;;;;5071806;28;20487;-44
2021/03/29 12:04:50;;;;;;;6.30;2.53;;;18.50;68.10;;;;;;5071769;28;20792;-45
2021/03/29 12:07:21;;;;;;;5.80;2.90;;;18.60;67.30;;;;;;5071835;28;20575;-45
2021/03/29 12:11:45;;;;;;;11.13;4.73;;;18.80;67.20;;;;;;5071958;28;20743;-46
2021/03/29 12:12:39;;;;;;;10.10;3.03;;;18.90;66.80;;;;;;5071275;28;20769;-45
2021/03/29 12:15:10;;;;;;;10.13;3.80;;;19.00;65.20;;;;;;5072310;28;20533;-45
2021/03/29 12:17:38;;;;;;;11.67;3.07;;;19.30;64.90;;;;;;5071881;28;20461;-46
2021/03/29 12:20:07;;;;;;;7.47;3.00;;;19.30;63.90;;;;;;5071439;28;20929;-46
2021/03/29 12:22:34;;;;;;;10.97;3.10;;;18.90;63.60;;;;;;5071329;28;20793;-45
2021/03/29 12:25:02;;;;;;;9.10;3.33;;;18.50;62.50;;;;;;5072233;28;20430;-46
2021/03/29 12:27:30;;;;;;;8.13;2.70;;;18.80;63.10;;;;;;5072081;28;20475;-45
2021/03/29 12:30:03;;;;;;;8.77;3.10;;;18.80;63.50;;;;;;5071730;28;20759;-46
2021/03/29 12:32:30;;;;;;;6.80;3.00;;;19.10;63.80;;;;;;5071124;28;20947;-47
2021/03/29 12:34:59;;;;;;;8.77;3.13;;;18.90;63.20;;;;;;5071451;28;20453;-45
2021/03/29 12:37:32;;;;;;;10.23;4.00;;;19.00;63.60;;;;;;5069020;28;20485;-45
2021/03/29 12:40:03;;;;;;;7.70;3.47;;;18.90;63.60;;;;;;5071066;28;20430;-46
2021/03/29 12:42:34;;;;;;;9.73;3.90;;;18.90;63.50;;;;;;5070828;28;20824;-45
2021/03/29 12:45:02;;;;;;;10.13;3.57;;;19.10;63.80;;;;;;5071503;28;20448;-46
2021/03/29 12:47:31;;;;;;;6.27;3.70;;;19.20;63.90;;;;;;5071226;28;20579;-47
2021/03/29 12:50:08;;;;;;;7.57;3.87;;;19.00;63.90;;;;;;5071047;28;20467;-45
2021/03/29 12:52:36;;;;;;;6.70;2.60;;;19.00;63.60;;;;;;5071009;28;20928;-47
2021/03/29 12:55:05;;;;;;;15.67;3.70;;;19.10;63.70;;;;;;5071278;28;20457;-46